Time;durP1;ratioP1;P1;durP2;ratioP2;P2;SDS_P1;SDS_P2;PMS_P1;PMS_P2;Temp;Humidity;BMP_temperature;BMP_pressure;BME280_temperature;BME280_humidity;BME280_pressure;Samples;Min_cycle;Max_cycle;Signal;HPM_P1;HPM_P2
2021/12/09 00:02:00;;;;;;;12.25;4.22;;;7.60;57.50;;;;;;6115032;23;20001;-53
2021/12/09 00:04:30;;;;;;;14.98;5.07;;;7.60;57.50;;;;;;6113534;23;20578;-53
2021/12/09 00:06:58;;;;;;;11.43;4.07;;;7.60;57.50;;;;;;6111482;23;20002;-53
2021/12/09 00:09:25;;;;;;;9.88;4.68;;;7.60;57.40;;;;;;6126726;23;20214;-52
2021/12/09 00:11:51;;;;;;;24.40;4.60;;;7.60;57.40;;;;;;6115769;23;20292;-53
2021/12/09 00:14:25;;;;;;;11.43;3.28;;;7.60;57.40;;;;;;6115208;23;19994;-53
2021/12/09 00:16:57;;;;;;;17.37;4.07;;;7.60;57.30;;;;;;6115958;23;20006;-54
2021/12/09 00:19:24;;;;;;;12.82;4.07;;;7.60;57.30;;;;;;6125455;23;20229;-52
2021/12/09 00:21:51;;;;;;;12.30;3.97;;;7.50;57.30;;;;;;6114468;23;20006;-52
2021/12/09 00:24:17;;;;;;;13.18;3.30;;;7.50;57.40;;;;;;6114441;23;20017;-54
2021/12/09 00:26:44;;;;;;;11.27;3.20;;;7.50;57.30;;;;;;6114358;23;20006;-54
2021/12/09 00:29:12;;;;;;;10.40;3.20;;;7.50;57.40;;;;;;6116521;23;19994;-54
2021/12/09 00:31:38;;;;;;;12.68;3.17;;;7.50;57.40;;;;;;6115570;23;20478;-52
2021/12/09 00:34:04;;;;;;;11.40;3.10;;;7.40;57.30;;;;;;6115755;23;20304;-55
2021/12/09 00:36:39;;;;;;;9.35;2.78;;;7.40;57.30;;;;;;6113601;23;20001;-53
2021/12/09 00:39:09;;;;;;;8.85;2.55;;;7.40;57.30;;;;;;6117830;23;20013;-54
2021/12/09 00:41:35;;;;;;;11.90;2.55;;;7.40;57.30;;;;;;6116682;23;20006;-54
2021/12/09 00:44:02;;;;;;;5.68;2.15;;;7.40;57.30;;;;;;6113265;23;20006;-51
2021/12/09 00:46:28;;;;;;;7.82;1.63;;;7.40;57.40;;;;;;6112048;23;20014;-55
2021/12/09 00:48:54;;;;;;;8.27;1.60;;;7.30;57.40;;;;;;6116094;23;20002;-54
2021/12/09 00:51:21;;;;;;;7.80;1.88;;;7.30;57.40;;;;;;6113201;23;20002;-52
2021/12/09 00:53:47;;;;;;;9.88;1.92;;;7.30;57.40;;;;;;6114150;23;20035;-54
2021/12/09 00:56:15;;;;;;;9.52;2.45;;;7.30;57.90;;;;;;6116116;23;20002;-55
2021/12/09 00:58:42;;;;;;;8.13;2.22;;;7.30;57.40;;;;;;6116039;23;20024;-55
2021/12/09 01:01:09;;;;;;;5.95;1.92;;;7.30;57.40;;;;;;6114546;23;20002;-54
2021/12/09 01:03:37;;;;;;;6.90;1.85;;;7.30;57.30;;;;;;6113113;23;20173;-53
2021/12/09 01:06:04;;;;;;;11.88;2.00;;;7.30;57.30;;;;;;6114206;23;20021;-51
2021/12/09 01:08:30;;;;;;;6.68;1.92;;;7.30;57.30;;;;;;6114820;23;20023;-53
2021/12/09 01:10:57;;;;;;;7.63;1.88;;;7.30;57.30;;;;;;6115145;23;20013;-54
2021/12/09 01:13:23;;;;;;;8.57;2.33;;;7.30;57.30;;;;;;6112498;23;20526;-51
2021/12/09 01:15:49;;;;;;;7.65;2.00;;;7.30;57.30;;;;;;6108253;23;20002;-55
2021/12/09 01:18:16;;;;;;;8.30;1.77;;;7.30;57.40;;;;;;6111975;23;20009;-55
2021/12/09 01:20:42;;;;;;;5.85;1.77;;;7.30;57.30;;;;;;6116204;23;20331;-52
2021/12/09 01:23:08;;;;;;;5.93;1.65;;;7.30;57.30;;;;;;6112554;23;20009;-54
2021/12/09 01:25:38;;;;;;;7.95;2.25;;;7.40;57.40;;;;;;6113636;23;20017;-54
2021/12/09 01:28:13;;;;;;;9.30;1.88;;;7.30;57.30;;;;;;6114774;23;20002;-54
2021/12/09 01:30:39;;;;;;;6.97;1.58;;;7.30;57.40;;;;;;6124626;23;20002;-51
2021/12/09 01:33:06;;;;;;;8.35;2.08;;;7.30;57.40;;;;;;6114390;23;20009;-51
2021/12/09 01:35:35;;;;;;;10.60;2.15;;;7.30;57.40;;;;;;6115565;23;20002;-51
2021/12/09 01:38:10;;;;;;;8.70;2.33;;;7.40;57.40;;;;;;6115958;23;20005;-52
2021/12/09 01:40:37;;;;;;;8.60;2.08;;;7.40;57.40;;;;;;6116135;23;20233;-52
2021/12/09 01:43:04;;;;;;;4.75;2.15;;;7.30;57.40;;;;;;6114472;23;20006;-54
2021/12/09 01:45:30;;;;;;;9.85;3.08;;;7.40;57.40;;;;;;6113439;23;20507;-54
2021/12/09 01:47:56;;;;;;;6.88;3.00;;;7.40;57.40;;;;;;6114223;23;20096;-53
2021/12/09 01:50:24;;;;;;;10.82;3.08;;;7.30;57.40;;;;;;6116101;23;20006;-53
2021/12/09 01:52:51;;;;;;;8.20;3.15;;;7.40;57.50;;;;;;6115004;23;20005;-56
2021/12/09 01:55:19;;;;;;;9.43;2.70;;;7.40;57.50;;;;;;6115000;23;20010;-54
2021/12/09 01:57:48;;;;;;;11.40;3.45;;;7.40;57.60;;;;;;6114843;23;20010;-53
2021/12/09 02:00:21;;;;;;;10.02;3.65;;;7.40;57.60;;;;;;6115021;23;20013;-53
2021/12/09 02:02:47;;;;;;;12.23;3.72;;;7.40;57.70;;;;;;6113667;23;20016;-54
2021/12/09 02:05:14;;;;;;;16.85;4.03;;;7.40;57.70;;;;;;6111921;23;20613;-53
2021/12/09 02:07:41;;;;;;;13.20;3.80;;;7.40;57.70;;;;;;6114513;23;20014;-52
2021/12/09 02:10:11;;;;;;;10.75;3.38;;;7.40;57.70;;;;;;6114624;23;20029;-52
2021/12/09 02:12:38;;;;;;;11.13;3.55;;;7.40;57.70;;;;;;6111646;23;20010;-51
2021/12/09 02:15:06;;;;;;;11.85;3.35;;;7.40;57.70;;;;;;6113015;23;20186;-53
2021/12/09 02:17:32;;;;;;;8.90;3.45;;;7.40;57.60;;;;;;6113417;23;20002;-54
2021/12/09 02:20:01;;;;;;;8.48;3.50;;;7.40;57.60;;;;;;6114371;23;19998;-52
2021/12/09 02:22:29;;;;;;;5.68;3.10;;;7.40;57.60;;;;;;6115746;23;20319;-52
2021/12/09 02:24:56;;;;;;;10.48;3.83;;;7.40;57.60;;;;;;6111727;23;20022;-54
2021/12/09 02:27:24;;;;;;;13.27;3.90;;;7.40;57.60;;;;;;6114908;23;20009;-52
2021/12/09 02:29:53;;;;;;;9.57;3.75;;;7.40;57.60;;;;;;6114929;23;20335;-49
2021/12/09 02:32:19;;;;;;;12.85;4.05;;;7.40;57.60;;;;;;6111513;23;20013;-51
2021/12/09 02:34:45;;;;;;;14.23;4.03;;;7.40;57.60;;;;;;6113810;23;20017;-52
2021/12/09 02:37:13;;;;;;;12.98;4.10;;;7.40;57.60;;;;;;6115556;23;19998;-52
2021/12/09 02:39:44;;;;;;;10.82;4.00;;;7.40;57.60;;;;;;6110012;23;20002;-54
2021/12/09 02:42:11;;;;;;;8.77;3.75;;;7.30;57.60;;;;;;6114767;23;20343;-54
2021/12/09 02:44:38;;;;;;;10.90;3.90;;;7.40;57.60;;;;;;6114825;23;20013;-54
2021/12/09 02:47:05;;;;;;;12.07;3.63;;;7.40;57.70;;;;;;6112787;23;20368;-52
2021/12/09 02:49:32;;;;;;;8.55;3.78;;;7.40;57.80;;;;;;6115816;23;20331;-52
2021/12/09 02:52:02;;;;;;;11.07;3.60;;;7.30;57.70;;;;;;6114323;23;20010;-50
2021/12/09 02:54:29;;;;;;;9.80;4.00;;;7.30;57.70;;;;;;6112917;23;20407;-53
2021/12/09 02:56:59;;;;;;;7.85;3.47;;;7.30;57.80;;;;;;6114247;23;20328;-52
2021/12/09 02:59:25;;;;;;;10.68;3.40;;;7.30;57.80;;;;;;6114676;23;20435;-54
2021/12/09 03:01:57;;;;;;;9.57;3.67;;;7.30;57.80;;;;;;6113139;23;20023;-51
2021/12/09 03:04:44;;;;;;;18.02;4.45;;;7.30;57.90;;;;;;6114631;23;20414;-50
2021/12/09 03:07:23;;;;;;;12.38;4.43;;;7.30;57.90;;;;;;6115194;23;20010;-51
2021/12/09 03:09:54;;;;;;;10.00;4.10;;;7.30;57.90;;;;;;6112997;23;19998;-54
2021/12/09 03:12:24;;;;;;;12.35;3.67;;;7.30;57.90;;;;;;6123748;23;19998;-53
2021/12/09 03:14:51;;;;;;;11.82;3.75;;;7.30;57.90;;;;;;6110845;23;20002;-52
2021/12/09 03:17:18;;;;;;;14.40;4.32;;;7.30;57.90;;;;;;6113287;23;20002;-53
2021/12/09 03:19:45;;;;;;;11.80;4.15;;;7.30;58.00;;;;;;6115564;23;19998;-52
2021/12/09 03:22:12;;;;;;;13.40;4.10;;;7.30;58.00;;;;;;6115952;23;20447;-54
2021/12/09 03:24:38;;;;;;;19.60;3.90;;;7.30;58.00;;;;;;6113393;23;20002;-57
2021/12/09 03:27:05;;;;;;;11.70;4.03;;;7.20;58.00;;;;;;6115405;23;20017;-52
2021/12/09 03:29:31;;;;;;;12.30;4.30;;;7.20;58.00;;;;;;6115140;23;20063;-50
2021/12/09 03:32:03;;;;;;;16.05;4.47;;;7.20;58.00;;;;;;6114618;23;20009;-55
2021/12/09 03:34:31;;;;;;;15.27;3.75;;;7.20;57.90;;;;;;6123707;23;20006;-54
2021/12/09 03:37:00;;;;;;;12.75;4.35;;;7.20;57.80;;;;;;6115515;23;20427;-53
2021/12/09 03:39:30;;;;;;;9.35;3.70;;;7.20;57.80;;;;;;6116050;23;20010;-55
2021/12/09 03:41:57;;;;;;;11.57;3.90;;;7.20;57.80;;;;;;6114507;23;20464;-54
2021/12/09 03:44:24;;;;;;;11.88;4.25;;;7.10;57.80;;;;;;6113681;23;20005;-53
2021/12/09 03:46:52;;;;;;;12.38;4.15;;;7.10;57.70;;;;;;6115001;23;20379;-54
2021/12/09 03:49:20;;;;;;;10.82;4.55;;;7.00;57.60;;;;;;6113962;23;19998;-53
2021/12/09 03:51:46;;;;;;;7.78;3.60;;;7.00;57.60;;;;;;6115200;23;20006;-53
2021/12/09 03:54:14;;;;;;;9.45;4.20;;;6.90;57.60;;;;;;6115056;23;20002;-54
2021/12/09 03:56:41;;;;;;;13.30;4.35;;;6.90;57.60;;;;;;6115204;23;20005;-55
2021/12/09 03:59:09;;;;;;;12.80;3.85;;;6.90;57.60;;;;;;6116171;23;20466;-56
2021/12/09 04:01:37;;;;;;;18.90;4.30;;;6.80;57.60;;;;;;6113660;23;20512;-52
2021/12/09 04:04:04;;;;;;;13.43;4.55;;;6.80;57.60;;;;;;6114350;23;20738;-54
2021/12/09 04:06:30;;;;;;;12.88;4.93;;;6.70;57.70;;;;;;6116298;23;20161;-50
2021/12/09 04:08:57;;;;;;;12.45;4.10;;;6.70;57.70;;;;;;6116655;23;20014;-49
2021/12/09 04:11:24;;;;;;;12.15;4.03;;;6.60;57.70;;;;;;6115654;23;20002;-49
2021/12/09 04:13:51;;;;;;;11.40;4.43;;;6.60;57.70;;;;;;6113942;23;20009;-53
2021/12/09 04:16:17;;;;;;;15.30;4.25;;;6.50;57.70;;;;;;6114987;23;20560;-52
2021/12/09 04:18:44;;;;;;;10.32;4.57;;;6.50;57.80;;;;;;6117316;23;20002;-53
2021/12/09 04:21:12;;;;;;;14.35;4.45;;;6.50;57.90;;;;;;6115098;23;20009;-54
2021/12/09 04:23:39;;;;;;;14.90;4.80;;;6.40;57.80;;;;;;6112855;23;20323;-56
2021/12/09 04:26:07;;;;;;;16.27;3.90;;;6.40;57.90;;;;;;6116756;23;20006;-55
2021/12/09 04:28:34;;;;;;;16.02;4.50;;;6.40;58.00;;;;;;6115367;23;20019;-55
2021/12/09 04:31:01;;;;;;;11.50;4.25;;;6.40;58.10;;;;;;6114088;23;20002;-51
2021/12/09 04:33:29;;;;;;;15.10;4.47;;;6.30;58.10;;;;;;6115185;23;20013;-54
2021/12/09 04:35:57;;;;;;;16.88;5.05;;;6.30;58.20;;;;;;6116760;23;20005;-54
2021/12/09 04:38:23;;;;;;;11.57;4.75;;;6.20;58.20;;;;;;6116946;23;20475;-54
2021/12/09 04:40:49;;;;;;;12.68;4.85;;;6.20;58.30;;;;;;6115680;23;20415;-54
2021/12/09 04:43:16;;;;;;;16.55;5.93;;;6.20;58.30;;;;;;6114786;23;20046;-55
2021/12/09 04:45:42;;;;;;;13.00;4.93;;;6.20;58.30;;;;;;6115698;23;20017;-52
2021/12/09 04:48:09;;;;;;;11.73;4.63;;;6.10;58.30;;;;;;6114035;23;20005;-50
2021/12/09 04:50:37;;;;;;;12.82;4.80;;;6.10;58.30;;;;;;6113719;23;20003;-53
2021/12/09 04:53:05;;;;;;;15.45;4.22;;;6.00;58.40;;;;;;6115573;23;20154;-52
2021/12/09 04:55:31;;;;;;;9.95;4.75;;;6.10;58.50;;;;;;6115427;23;20420;-53
2021/12/09 04:57:58;;;;;;;13.00;4.63;;;6.00;58.50;;;;;;6116062;23;20017;-53
2021/12/09 05:00:27;;;;;;;19.70;5.07;;;6.00;58.60;;;;;;6115542;23;20006;-54
2021/12/09 05:03:05;;;;;;;12.77;4.53;;;6.00;58.60;;;;;;6114097;23;20446;-56
2021/12/09 05:05:37;;;;;;;12.95;5.25;;;5.90;58.60;;;;;;6124104;23;20006;-52
2021/12/09 05:08:06;;;;;;;11.98;4.95;;;5.90;58.70;;;;;;6138129;23;20483;-54
2021/12/09 05:10:49;;;;;;;15.27;5.55;;;5.90;58.60;;;;;;6116406;23;19998;-56
2021/12/09 05:13:15;;;;;;;13.15;4.88;;;5.90;58.70;;;;;;6112420;23;20026;-52
2021/12/09 05:15:41;;;;;;;13.10;5.20;;;5.90;58.70;;;;;;6112582;23;20439;-55
2021/12/09 05:18:08;;;;;;;11.30;4.38;;;5.80;58.70;;;;;;6106419;23;20353;-53
2021/12/09 05:20:34;;;;;;;13.20;5.07;;;5.80;58.70;;;;;;6113583;23;20005;-54
2021/12/09 05:23:00;;;;;;;18.52;5.00;;;5.80;58.80;;;;;;6114510;23;20360;-55
2021/12/09 05:25:26;;;;;;;11.80;4.30;;;5.70;58.80;;;;;;6116448;23;20006;-53
2021/12/09 05:27:53;;;;;;;12.00;5.00;;;5.70;58.80;;;;;;6114689;23;20419;-52
2021/12/09 05:30:24;;;;;;;12.30;5.03;;;5.70;58.90;;;;;;6112611;23;19999;-54
2021/12/09 05:32:53;;;;;;;13.00;4.88;;;5.70;58.90;;;;;;6121285;23;20415;-53
2021/12/09 05:35:19;;;;;;;16.13;5.45;;;5.70;59.00;;;;;;6114674;23;20311;-53
2021/12/09 05:37:48;;;;;;;20.73;5.80;;;5.60;58.90;;;;;;6112886;23;20017;-55
2021/12/09 05:40:15;;;;;;;14.50;5.30;;;5.70;59.10;;;;;;6087644;23;20002;-49
2021/12/09 05:42:42;;;;;;;15.65;5.05;;;5.60;59.10;;;;;;6115585;23;20013;-51
2021/12/09 05:45:08;;;;;;;14.57;5.60;;;5.60;59.10;;;;;;6112210;23;20002;-54
2021/12/09 05:47:34;;;;;;;13.90;5.30;;;5.60;59.70;;;;;;6110926;23;20057;-55
2021/12/09 05:50:01;;;;;;;16.00;6.35;;;5.60;59.20;;;;;;6115197;23;20014;-54
2021/12/09 05:52:27;;;;;;;18.67;5.55;;;5.60;59.20;;;;;;6111872;23;20002;-54
2021/12/09 05:54:53;;;;;;;17.75;6.60;;;5.60;59.30;;;;;;6111919;23;20009;-55
2021/12/09 05:57:19;;;;;;;15.43;5.95;;;5.50;59.30;;;;;;6112976;23;20006;-53
2021/12/09 06:03:36;;;;;;;18.15;5.88;;;5.50;59.40;;;;;;6124012;23;20458;-52
2021/12/09 06:06:02;;;;;;;;;;;5.50;59.40;;;;;;6124641;23;20002;-56
2021/12/09 06:08:29;;;;;;;14.57;5.93;;;5.50;59.40;;;;;;6115290;23;19913;-51
2021/12/09 06:10:55;;;;;;;12.30;5.72;;;5.50;59.30;;;;;;6115494;23;19998;-51
2021/12/09 06:13:26;;;;;;;16.15;6.38;;;5.50;59.40;;;;;;6113235;23;20324;-52
2021/12/09 06:15:52;;;;;;;14.73;6.00;;;5.40;59.40;;;;;;6122245;23;20002;-56
2021/12/09 06:18:18;;;;;;;14.90;5.90;;;5.40;59.50;;;;;;6114541;23;20463;-55
2021/12/09 06:20:44;;;;;;;17.88;6.22;;;5.40;59.50;;;;;;6114558;23;20002;-50
2021/12/09 06:23:11;;;;;;;15.77;5.68;;;5.40;59.50;;;;;;6113402;23;20013;-52
2021/12/09 06:25:37;;;;;;;12.52;6.07;;;5.40;59.60;;;;;;6114850;23;20462;-52
2021/12/09 06:28:03;;;;;;;16.13;6.13;;;5.40;59.70;;;;;;6114769;23;20483;-53
2021/12/09 06:30:30;;;;;;;11.88;6.45;;;5.40;59.70;;;;;;6112169;23;20411;-54
2021/12/09 06:32:56;;;;;;;68.35;26.15;;;5.30;59.60;;;;;;6110007;23;20025;-55
2021/12/09 06:35:22;;;;;;;22.55;9.52;;;5.30;59.60;;;;;;6113842;23;20331;-53
2021/12/09 06:37:49;;;;;;;13.88;7.00;;;5.30;59.60;;;;;;6108159;23;20316;-52
2021/12/09 06:40:19;;;;;;;14.25;7.13;;;5.30;59.60;;;;;;6107747;23;20002;-53
2021/12/09 06:42:47;;;;;;;13.15;5.90;;;5.30;59.60;;;;;;6108919;23;20454;-52
2021/12/09 06:45:14;;;;;;;17.13;6.75;;;5.30;59.60;;;;;;6111236;23;20399;-52
2021/12/09 06:47:40;;;;;;;13.88;6.57;;;5.30;59.70;;;;;;6108907;23;20327;-54
2021/12/09 06:50:09;;;;;;;12.73;6.30;;;5.20;59.60;;;;;;6109853;23;19998;-54
2021/12/09 06:52:36;;;;;;;10.18;6.07;;;5.20;59.70;;;;;;6114406;23;19998;-51
2021/12/09 06:55:04;;;;;;;9.60;5.45;;;5.20;59.70;;;;;;6114568;23;20002;-55
2021/12/09 06:57:30;;;;;;;10.75;6.15;;;5.20;59.70;;;;;;6111598;23;20021;-54
2021/12/09 06:59:57;;;;;;;9.23;6.10;;;5.20;59.80;;;;;;6110909;23;20809;-54
2021/12/09 07:02:23;;;;;;;12.80;5.85;;;5.20;59.80;;;;;;6106875;23;20010;-53
2021/12/09 07:04:49;;;;;;;18.23;9.10;;;5.10;59.80;;;;;;6112188;23;20002;-55
2021/12/09 07:07:15;;;;;;;15.27;7.72;;;5.10;59.90;;;;;;6114702;23;20025;-54
2021/12/09 07:09:42;;;;;;;22.15;9.23;;;5.10;59.90;;;;;;6116700;23;20001;-51
2021/12/09 07:12:08;;;;;;;18.17;8.65;;;5.10;60.00;;;;;;6138856;23;20005;-52
2021/12/09 07:14:35;;;;;;;20.05;8.90;;;5.10;60.10;;;;;;6114601;23;20005;-54
2021/12/09 07:17:01;;;;;;;16.70;8.35;;;5.10;60.20;;;;;;6113326;23;20009;-54
2021/12/09 07:19:27;;;;;;;13.95;6.30;;;5.10;60.30;;;;;;6115934;23;20013;-52
2021/12/09 07:21:54;;;;;;;12.80;6.13;;;5.10;60.50;;;;;;6116318;23;20420;-53
2021/12/09 07:24:20;;;;;;;13.70;7.28;;;5.10;60.60;;;;;;6111584;23;20006;-55
2021/12/09 07:26:46;;;;;;;13.93;6.55;;;5.10;60.60;;;;;;6116582;23;20017;-51
2021/12/09 07:29:12;;;;;;;11.45;6.07;;;5.10;60.60;;;;;;6115403;23;19998;-54
2021/12/09 07:31:39;;;;;;;17.40;7.03;;;5.10;60.50;;;;;;6113028;23;19998;-53
2021/12/09 07:34:05;;;;;;;10.75;6.45;;;5.20;60.60;;;;;;6114232;23;20009;-56
2021/12/09 07:36:31;;;;;;;12.55;6.45;;;5.20;60.60;;;;;;6116130;23;20427;-53
2021/12/09 07:38:58;;;;;;;15.27;6.53;;;5.20;60.60;;;;;;6116712;23;20006;-51
2021/12/09 07:41:26;;;;;;;10.70;5.80;;;5.10;60.50;;;;;;6115756;23;20002;-52
2021/12/09 07:43:53;;;;;;;8.75;5.63;;;5.20;60.50;;;;;;6114691;23;20439;-50
2021/12/09 07:46:20;;;;;;;13.65;6.53;;;5.10;60.50;;;;;;6115370;23;20017;-53
2021/12/09 07:48:46;;;;;;;14.98;6.63;;;5.10;60.50;;;;;;6112268;23;20017;-52
2021/12/09 07:51:12;;;;;;;10.45;6.18;;;5.10;60.50;;;;;;6115602;23;20006;-53
2021/12/09 07:53:39;;;;;;;16.38;6.80;;;5.10;60.60;;;;;;6114701;23;20006;-54
2021/12/09 07:56:05;;;;;;;12.43;6.35;;;5.10;60.60;;;;;;6115671;23;19998;-54
2021/12/09 07:58:33;;;;;;;18.33;6.65;;;5.10;60.70;;;;;;6114708;23;20002;-56
2021/12/09 08:00:59;;;;;;;11.07;6.88;;;5.10;60.80;;;;;;6115065;23;20304;-54
2021/12/09 08:03:25;;;;;;;12.40;6.75;;;5.10;60.90;;;;;;6113738;23;20002;-51
2021/12/09 08:05:51;;;;;;;11.65;7.00;;;5.10;61.00;;;;;;6111490;23;19998;-56
2021/12/09 08:08:18;;;;;;;16.50;6.95;;;5.10;61.10;;;;;;6114630;23;20018;-54
2021/12/09 08:10:44;;;;;;;11.52;6.55;;;5.00;61.20;;;;;;6115691;23;20319;-54
2021/12/09 08:13:12;;;;;;;16.67;6.97;;;5.10;61.50;;;;;;6135984;23;20312;-55
2021/12/09 08:15:45;;;;;;;10.20;6.22;;;5.10;61.70;;;;;;6112657;23;20002;-53
2021/12/09 08:20:47;;;;;;;12.45;6.32;;;5.10;61.80;;;;;;6126416;23;20006;-50
2021/12/09 08:23:14;;;;;;;10.93;6.13;;;5.20;61.80;;;;;;6115260;23;20099;-53
2021/12/09 08:25:43;;;;;;;12.40;6.57;;;5.20;61.70;;;;;;6115416;23;20762;-53
2021/12/09 08:28:10;;;;;;;16.40;6.28;;;5.20;61.70;;;;;;6113029;23;20002;-53
2021/12/09 08:30:38;;;;;;;11.55;6.38;;;5.20;61.50;;;;;;6111952;23;20312;-51
2021/12/09 08:33:08;;;;;;;17.08;7.20;;;5.20;61.50;;;;;;6110214;23;20327;-53
2021/12/09 08:35:36;;;;;;;13.00;6.90;;;5.20;61.60;;;;;;6116596;23;19998;-53
2021/12/09 08:38:07;;;;;;;15.07;7.32;;;5.20;61.60;;;;;;6113323;23;20423;-51
2021/12/09 08:40:34;;;;;;;12.07;7.00;;;5.20;61.70;;;;;;6125489;23;20006;-53
2021/12/09 08:43:00;;;;;;;11.63;6.85;;;5.20;61.70;;;;;;6113837;23;20009;-55
2021/12/09 08:45:26;;;;;;;66.90;25.25;;;5.20;61.90;;;;;;6114106;23;20005;-50
2021/12/09 08:47:52;;;;;;;20.33;9.75;;;5.20;62.00;;;;;;6114031;23;20177;-55
2021/12/09 08:50:21;;;;;;;18.58;8.15;;;5.20;62.00;;;;;;6115790;23;20006;-52
2021/12/09 08:52:50;;;;;;;14.60;7.57;;;5.20;62.00;;;;;;6115782;23;19998;-52
2021/12/09 08:55:17;;;;;;;18.23;7.20;;;5.30;62.20;;;;;;6135132;23;20459;-52
2021/12/09 08:57:44;;;;;;;15.30;6.85;;;5.30;62.30;;;;;;6115160;23;20396;-55
2021/12/09 09:00:14;;;;;;;15.68;7.20;;;5.30;62.30;;;;;;6115529;23;20006;-53
2021/12/09 09:02:43;;;;;;;15.27;6.75;;;5.30;62.50;;;;;;6112907;23;20006;-53
2021/12/09 09:05:13;;;;;;;17.98;6.95;;;5.30;62.50;;;;;;6114439;23;20002;-54
2021/12/09 09:07:44;;;;;;;14.07;7.07;;;5.40;62.60;;;;;;6114841;23;20006;-51
2021/12/09 09:10:13;;;;;;;13.70;7.63;;;5.40;62.80;;;;;;6115998;23;20013;-54
2021/12/09 09:12:39;;;;;;;21.42;7.97;;;5.40;62.70;;;;;;6113314;23;20005;-53
2021/12/09 09:15:11;;;;;;;14.80;6.78;;;5.50;62.80;;;;;;6113655;23;20423;-53
2021/12/09 09:17:38;;;;;;;17.25;7.07;;;5.50;62.90;;;;;;6124367;23;20529;-54
2021/12/09 09:20:07;;;;;;;14.07;6.35;;;5.50;62.80;;;;;;6116090;23;20002;-53
2021/12/09 09:22:34;;;;;;;16.10;6.35;;;5.50;62.90;;;;;;6111445;23;20001;-55
2021/12/09 09:25:00;;;;;;;13.93;6.47;;;5.60;62.90;;;;;;6111461;23;20005;-48
2021/12/09 09:27:26;;;;;;;15.02;6.63;;;5.60;62.90;;;;;;6112275;23;20026;-52
2021/12/09 09:29:52;;;;;;;11.60;5.90;;;5.60;62.90;;;;;;6114702;23;20002;-53
2021/12/09 09:32:18;;;;;;;15.05;6.25;;;5.70;63.00;;;;;;6113871;23;20010;-54
2021/12/09 09:34:45;;;;;;;15.10;6.28;;;5.70;63.00;;;;;;6116170;23;20729;-54
2021/12/09 09:37:11;;;;;;;16.20;6.35;;;5.70;62.90;;;;;;6114546;23;20005;-54
2021/12/09 09:39:42;;;;;;;14.63;5.22;;;5.70;62.90;;;;;;6115651;23;20025;-52
2021/12/09 09:44:48;;;;;;;15.25;5.95;;;5.80;62.90;;;;;;6114123;23;20025;-53
2021/12/09 09:47:16;;;;;;;14.15;5.78;;;5.80;62.90;;;;;;6122787;23;20419;-53
2021/12/09 09:49:43;;;;;;;12.60;6.15;;;5.90;62.90;;;;;;6114941;23;20005;-53
2021/12/09 09:52:10;;;;;;;15.90;5.68;;;5.90;62.90;;;;;;6114615;23;20005;-53
2021/12/09 09:54:40;;;;;;;13.13;5.60;;;5.90;62.90;;;;;;6115476;23;20009;-54
2021/12/09 09:57:09;;;;;;;10.40;4.93;;;6.00;63.00;;;;;;6113519;23;20359;-54
2021/12/09 09:59:36;;;;;;;18.00;6.28;;;6.00;62.90;;;;;;6116310;23;20316;-54
2021/12/09 10:02:04;;;;;;;13.77;5.43;;;6.00;62.90;;;;;;6114358;23;20050;-54
2021/12/09 10:04:43;;;;;;;20.02;5.50;;;6.10;62.90;;;;;;6115537;23;20025;-52
2021/12/09 10:07:11;;;;;;;10.98;4.78;;;6.10;62.90;;;;;;6117477;23;20014;-54
2021/12/09 10:09:38;;;;;;;10.15;4.97;;;6.10;62.90;;;;;;6115022;23;20591;-54
2021/12/09 10:12:05;;;;;;;11.32;5.32;;;6.20;63.60;;;;;;6114343;23;20146;-50
2021/12/09 10:14:34;;;;;;;12.93;5.05;;;6.20;62.90;;;;;;6115769;23;19994;-53
2021/12/09 10:17:09;;;;;;;12.65;5.72;;;6.20;62.90;;;;;;6113511;23;20002;-56
2021/12/09 10:19:47;;;;;;;19.60;6.40;;;6.30;63.00;;;;;;6125681;23;20013;-53
2021/12/09 10:22:19;;;;;;;12.55;5.57;;;6.30;62.90;;;;;;6124465;23;20009;-52
2021/12/09 10:24:47;;;;;;;15.25;5.15;;;6.40;63.00;;;;;;6114787;23;20009;-51
2021/12/09 10:27:34;;;;;;;10.77;5.05;;;6.40;62.90;;;;;;6111435;23;20021;-54
2021/12/09 10:30:11;;;;;;;13.90;5.45;;;6.40;63.00;;;;;;6115857;23;20021;-55
2021/12/09 10:32:39;;;;;;;14.93;5.35;;;6.50;63.20;;;;;;6113627;23;20014;-55
2021/12/09 10:35:11;;;;;;;15.38;5.03;;;6.50;63.20;;;;;;6114658;23;20021;-53
2021/12/09 10:37:40;;;;;;;12.95;5.30;;;6.60;63.50;;;;;;6114473;23;20439;-54
2021/12/09 10:40:12;;;;;;;9.27;4.28;;;6.70;63.60;;;;;;6115628;23;20024;-55
2021/12/09 10:42:43;;;;;;;11.23;4.05;;;6.80;63.70;;;;;;6124325;23;20010;-56
2021/12/09 10:45:20;;;;;;;7.93;4.15;;;6.80;63.50;;;;;;6136625;23;20009;-53
2021/12/09 10:48:01;;;;;;;10.80;4.03;;;6.90;63.40;;;;;;6113255;23;20228;-54
2021/12/09 10:50:44;;;;;;;12.60;4.10;;;7.00;63.20;;;;;;6113465;23;20014;-52
2021/12/09 10:55:50;;;;;;;11.07;3.47;;;7.30;62.40;;;;;;6124630;23;20424;-54
2021/12/09 10:58:18;;;;;;;9.52;3.22;;;7.30;61.80;;;;;;6124329;23;19998;-50
2021/12/09 11:00:54;;;;;;;11.13;3.25;;;7.40;61.80;;;;;;6114454;23;20348;-53
2021/12/09 11:03:35;;;;;;;12.02;2.90;;;7.50;61.20;;;;;;6113142;23;20013;-50
2021/12/09 11:06:09;;;;;;;10.32;3.40;;;7.60;60.80;;;;;;6123237;23;20005;-52
2021/12/09 11:08:40;;;;;;;11.10;2.80;;;7.70;60.50;;;;;;6114721;23;20026;-54
2021/12/09 11:11:13;;;;;;;11.13;3.03;;;7.70;60.10;;;;;;6125025;23;20010;-52
2021/12/09 11:13:50;;;;;;;13.45;3.33;;;7.70;59.80;;;;;;6124538;23;20002;-52
2021/12/09 11:16:29;;;;;;;7.03;2.65;;;7.80;59.60;;;;;;6123322;23;20420;-53
2021/12/09 11:19:05;;;;;;;8.70;2.42;;;7.90;59.70;;;;;;6112833;23;20454;-55
2021/12/09 11:21:34;;;;;;;11.05;2.80;;;7.90;59.30;;;;;;6115240;23;20450;-52
2021/12/09 11:24:07;;;;;;;7.25;2.60;;;8.00;59.20;;;;;;6114872;23;20002;-53
2021/12/09 11:26:55;;;;;;;10.50;3.03;;;8.00;59.10;;;;;;6123582;23;20002;-54
2021/12/09 11:29:35;;;;;;;11.00;3.20;;;8.10;59.00;;;;;;6124214;23;20006;-52
2021/12/09 11:34:48;;;;;;;14.88;3.50;;;8.20;58.40;;;;;;6120169;23;20013;-51
2021/12/09 11:37:42;;;;;;;7.57;2.65;;;8.20;58.30;;;;;;6123070;23;20005;-53
2021/12/09 11:40:28;;;;;;;9.80;3.33;;;8.20;58.30;;;;;;6113953;23;20014;-54
2021/12/09 11:42:59;;;;;;;6.82;2.97;;;8.30;58.10;;;;;;6114001;23;20002;-53
2021/12/09 11:45:39;;;;;;;12.13;3.10;;;8.30;57.90;;;;;;6121039;23;20009;-52
2021/12/09 11:48:07;;;;;;;13.65;3.97;;;8.30;57.80;;;;;;6112170;23;20002;-52
2021/12/09 11:50:37;;;;;;;15.98;4.47;;;8.40;57.80;;;;;;6112954;23;19994;-53
2021/12/09 11:53:06;;;;;;;8.05;3.47;;;8.40;57.60;;;;;;6113607;23;19998;-51
2021/12/09 11:55:37;;;;;;;15.00;3.97;;;8.40;57.60;;;;;;6114811;23;20436;-51
2021/12/09 11:58:11;;;;;;;8.68;3.55;;;8.40;57.60;;;;;;6116310;23;20017;-55
2021/12/09 12:07:18;;;;;;;13.57;3.63;;;8.50;57.50;;;;;;6124322;23;20013;-53
2021/12/09 12:12:46;;;;;;;16.92;3.88;;;8.50;57.30;;;;;;6125832;23;20005;-53
2021/12/09 12:18:36;;;;;;;14.45;4.18;;;8.60;57.80;;;;;;6122670;23;20006;-53
2021/12/09 12:41:08;;;;;;;8.10;3.50;;;8.70;56.90;;;;;;6126130;23;20010;-54
2021/12/09 12:43:46;;;;;;;9.85;4.18;;;8.80;57.00;;;;;;6066012;23;20021;-53
2021/12/09 12:47:08;;;;;;;13.18;3.47;;;8.80;57.00;;;;;;6123513;23;20002;-56
2021/12/09 12:49:37;;;;;;;12.43;4.22;;;8.80;56.80;;;;;;6115457;23;19999;-53
2021/12/09 12:52:11;;;;;;;11.90;5.22;;;8.80;56.90;;;;;;6113979;23;20344;-51
2021/12/09 12:57:34;;;;;;;8.75;3.88;;;8.80;56.80;;;;;;6123442;23;20014;-53
2021/12/09 13:00:20;;;;;;;12.48;4.22;;;8.80;56.70;;;;;;6115033;23;20510;-49
2021/12/09 13:03:21;;;;;;;6.93;4.10;;;8.80;56.60;;;;;;6124119;23;20018;-53
2021/12/09 13:06:14;;;;;;;17.10;4.38;;;8.80;56.60;;;;;;6122300;23;20005;-52
2021/12/09 13:09:10;;;;;;;10.27;4.20;;;8.80;56.60;;;;;;6112670;23;20018;-55
2021/12/09 13:11:48;;;;;;;12.82;3.40;;;8.80;56.60;;;;;;6114521;23;20002;-55
2021/12/09 13:14:36;;;;;;;9.85;3.78;;;8.80;56.40;;;;;;6123418;23;20329;-54
2021/12/09 13:17:21;;;;;;;7.30;2.90;;;8.80;57.00;;;;;;6113509;23;20025;-54
2021/12/09 13:22:29;;;;;;;14.18;3.50;;;8.80;56.50;;;;;;6124772;23;20006;-52
2021/12/09 13:25:30;;;;;;;9.30;3.40;;;8.80;56.40;;;;;;6111448;23;20601;-52
2021/12/09 13:47:50;;;;;;;10.20;4.00;;;8.80;56.10;;;;;;6123106;23;20037;-51
2021/12/09 13:50:50;;;;;;;10.65;3.97;;;8.80;55.90;;;;;;6114453;23;20013;-50
2021/12/09 13:56:03;;;;;;;10.40;3.70;;;8.70;56.00;;;;;;6123467;23;20017;-55
2021/12/09 13:58:29;;;;;;;7.03;3.85;;;8.70;56.00;;;;;;6113013;23;20006;-53
2021/12/09 14:00:55;;;;;;;7.53;3.70;;;8.70;56.10;;;;;;6114878;23;20013;-50
2021/12/09 14:03:25;;;;;;;13.93;4.20;;;8.70;56.10;;;;;;6112926;23;20002;-52
2021/12/09 14:06:00;;;;;;;11.98;3.35;;;8.70;56.10;;;;;;6114385;23;20458;-50
2021/12/09 14:08:41;;;;;;;6.38;3.17;;;8.70;56.20;;;;;;6116399;23;20372;-53
2021/12/09 14:11:29;;;;;;;10.93;4.13;;;8.70;56.20;;;;;;6120620;23;20349;-53
2021/12/09 14:14:05;;;;;;;7.63;3.75;;;8.70;56.30;;;;;;6122348;23;20431;-52
2021/12/09 14:17:02;;;;;;;16.08;7.60;;;8.70;56.30;;;;;;6112737;23;20037;-52
2021/12/09 14:22:41;;;;;;;43.50;19.38;;;8.70;56.30;;;;;;6124501;23;20418;-54